Albion, Nebraska
Current Conditions -  °F | °C
As of 7:55 PM on Friday 21 Nov 2014 (Local Time) from KBVN Reporting Station
Broken Clouds Broken Clouds  
Wind Chill: 31°   Ceiling: 11000
Heat Index: 37°   Visibility: 10mi
Dew Point: 28°   Wind: 7mph
Humidity: 72%   Direction: 160°SSE
Pressure: 29.93"   Gusts: NA
Location:  41.69°N, 98°W
Report Text: KBVN 220155Z AUTO 16006KT 10SM BKN110 03/M02 A2993 RMK AO2 T00251021
Loading
Personal Weather Stations






























Interactive Weather Map New forecast layout! Learn more

10-Day Weather Forecast

Advertisements
Track Severe Weather on mobile